sensor_id;sensor_type;location;lat;lon;timestamp;P1;durP1;ratioP1;P2;durP2;ratioP2
71202;SDS011;58929;47.490;19.090;2022-09-03T00:00:08;9.60;;;4.63;;
71202;SDS011;58929;47.490;19.090;2022-09-03T00:02:38;7.63;;;3.72;;
71202;SDS011;58929;47.490;19.090;2022-09-03T00:05:14;8.85;;;4.28;;
71202;SDS011;58929;47.490;19.090;2022-09-03T00:07:46;10.05;;;4.25;;
71202;SDS011;58929;47.490;19.090;2022-09-03T00:10:19;8.10;;;4.05;;
71202;SDS011;58929;47.490;19.090;2022-09-03T00:12:49;8.10;;;4.60;;
71202;SDS011;58929;47.490;19.090;2022-09-03T00:15:19;10.38;;;5.03;;
71202;SDS011;58929;47.490;19.090;2022-09-03T00:17:48;13.43;;;4.63;;
71202;SDS011;58929;47.490;19.090;2022-09-03T00:20:21;8.32;;;4.03;;
71202;SDS011;58929;47.490;19.090;2022-09-03T00:22:52;11.30;;;4.00;;
71202;SDS011;58929;47.490;19.090;2022-09-03T00:25:22;13.90;;;4.38;;
71202;SDS011;58929;47.490;19.090;2022-09-03T00:27:52;9.70;;;3.90;;
71202;SDS011;58929;47.490;19.090;2022-09-03T00:30:21;12.95;;;4.68;;
71202;SDS011;58929;47.490;19.090;2022-09-03T00:32:51;8.52;;;4.53;;
71202;SDS011;58929;47.490;19.090;2022-09-03T00:35:24;7.40;;;4.32;;
71202;SDS011;58929;47.490;19.090;2022-09-03T00:37:53;7.70;;;3.60;;
71202;SDS011;58929;47.490;19.090;2022-09-03T00:40:28;6.55;;;3.60;;
71202;SDS011;58929;47.490;19.090;2022-09-03T00:43:00;11.65;;;4.30;;
71202;SDS011;58929;47.490;19.090;2022-09-03T00:45:31;7.90;;;4.07;;
71202;SDS011;58929;47.490;19.090;2022-09-03T00:48:02;9.82;;;4.35;;
71202;SDS011;58929;47.490;19.090;2022-09-03T00:50:37;12.43;;;4.50;;
71202;SDS011;58929;47.490;19.090;2022-09-03T00:53:09;11.35;;;3.80;;
71202;SDS011;58929;47.490;19.090;2022-09-03T00:55:42;8.30;;;4.28;;
71202;SDS011;58929;47.490;19.090;2022-09-03T00:58:17;10.70;;;4.57;;
71202;SDS011;58929;47.490;19.090;2022-09-03T01:00:48;7.10;;;4.20;;
71202;SDS011;58929;47.490;19.090;2022-09-03T01:03:19;9.98;;;4.70;;
71202;SDS011;58929;47.490;19.090;2022-09-03T01:05:59;8.07;;;4.47;;
71202;SDS011;58929;47.490;19.090;2022-09-03T01:08:42;8.15;;;3.65;;
71202;SDS011;58929;47.490;19.090;2022-09-03T01:11:19;9.65;;;4.25;;
71202;SDS011;58929;47.490;19.090;2022-09-03T01:13:54;6.40;;;3.90;;
71202;SDS011;58929;47.490;19.090;2022-09-03T01:16:24;11.73;;;3.60;;
71202;SDS011;58929;47.490;19.090;2022-09-03T01:18:56;9.57;;;3.88;;
71202;SDS011;58929;47.490;19.090;2022-09-03T01:21:40;5.93;;;3.70;;
71202;SDS011;58929;47.490;19.090;2022-09-03T01:24:17;6.10;;;3.95;;
71202;SDS011;58929;47.490;19.090;2022-09-03T01:27:00;7.80;;;3.80;;
71202;SDS011;58929;47.490;19.090;2022-09-03T01:29:33;7.22;;;4.28;;
71202;SDS011;58929;47.490;19.090;2022-09-03T01:32:06;8.10;;;4.22;;
71202;SDS011;58929;47.490;19.090;2022-09-03T01:34:42;7.45;;;3.85;;
71202;SDS011;58929;47.490;19.090;2022-09-03T01:37:14;6.63;;;3.83;;
71202;SDS011;58929;47.490;19.090;2022-09-03T01:39:48;11.65;;;4.65;;
71202;SDS011;58929;47.490;19.090;2022-09-03T01:42:22;11.45;;;4.28;;
71202;SDS011;58929;47.490;19.090;2022-09-03T01:44:59;7.88;;;4.05;;
71202;SDS011;58929;47.490;19.090;2022-09-03T01:47:34;5.25;;;4.03;;
71202;SDS011;58929;47.490;19.090;2022-09-03T01:50:06;8.57;;;3.72;;
71202;SDS011;58929;47.490;19.090;2022-09-03T01:52:39;13.80;;;4.50;;
71202;SDS011;58929;47.490;19.090;2022-09-03T01:55:13;11.10;;;4.18;;
71202;SDS011;58929;47.490;19.090;2022-09-03T01:57:46;7.20;;;3.80;;
71202;SDS011;58929;47.490;19.090;2022-09-03T02:00:17;17.30;;;4.88;;
71202;SDS011;58929;47.490;19.090;2022-09-03T02:02:46;7.20;;;3.63;;
71202;SDS011;58929;47.490;19.090;2022-09-03T02:05:17;12.32;;;4.65;;
71202;SDS011;58929;47.490;19.090;2022-09-03T02:07:49;6.60;;;4.00;;
71202;SDS011;58929;47.490;19.090;2022-09-03T02:10:17;7.55;;;3.90;;
71202;SDS011;58929;47.490;19.090;2022-09-03T02:12:47;6.60;;;3.85;;
71202;SDS011;58929;47.490;19.090;2022-09-03T02:15:17;10.73;;;4.65;;
71202;SDS011;58929;47.490;19.090;2022-09-03T02:17:47;12.15;;;4.82;;
71202;SDS011;58929;47.490;19.090;2022-09-03T02:20:16;13.23;;;4.82;;
71202;SDS011;58929;47.490;19.090;2022-09-03T02:22:46;11.68;;;4.88;;
71202;SDS011;58929;47.490;19.090;2022-09-03T02:25:15;13.38;;;4.50;;
71202;SDS011;58929;47.490;19.090;2022-09-03T02:27:43;11.63;;;4.22;;
71202;SDS011;58929;47.490;19.090;2022-09-03T02:30:12;8.93;;;4.22;;
71202;SDS011;58929;47.490;19.090;2022-09-03T02:32:41;9.10;;;3.67;;
71202;SDS011;58929;47.490;19.090;2022-09-03T02:35:09;11.55;;;4.32;;
71202;SDS011;58929;47.490;19.090;2022-09-03T02:37:38;11.95;;;4.90;;
71202;SDS011;58929;47.490;19.090;2022-09-03T02:40:07;11.63;;;4.53;;
71202;SDS011;58929;47.490;19.090;2022-09-03T02:42:36;9.13;;;4.47;;
71202;SDS011;58929;47.490;19.090;2022-09-03T02:45:06;6.35;;;3.92;;
71202;SDS011;58929;47.490;19.090;2022-09-03T02:47:36;6.38;;;4.13;;
71202;SDS011;58929;47.490;19.090;2022-09-03T02:50:08;9.90;;;4.15;;
71202;SDS011;58929;47.490;19.090;2022-09-03T02:52:36;13.13;;;5.32;;
71202;SDS011;58929;47.490;19.090;2022-09-03T02:55:05;9.02;;;4.25;;
71202;SDS011;58929;47.490;19.090;2022-09-03T02:57:33;16.25;;;4.53;;
71202;SDS011;58929;47.490;19.090;2022-09-03T03:00:01;17.52;;;4.68;;
71202;SDS011;58929;47.490;19.090;2022-09-03T03:02:29;10.27;;;5.00;;
71202;SDS011;58929;47.490;19.090;2022-09-03T03:04:57;7.60;;;4.20;;
71202;SDS011;58929;47.490;19.090;2022-09-03T03:07:26;7.25;;;4.28;;
71202;SDS011;58929;47.490;19.090;2022-09-03T03:09:54;9.52;;;4.63;;
71202;SDS011;58929;47.490;19.090;2022-09-03T03:12:22;8.00;;;4.82;;
71202;SDS011;58929;47.490;19.090;2022-09-03T03:14:50;13.15;;;4.20;;
71202;SDS011;58929;47.490;19.090;2022-09-03T03:17:18;15.43;;;5.22;;
71202;SDS011;58929;47.490;19.090;2022-09-03T03:19:46;9.50;;;5.07;;
71202;SDS011;58929;47.490;19.090;2022-09-03T03:22:16;9.55;;;4.95;;
71202;SDS011;58929;47.490;19.090;2022-09-03T03:24:45;12.35;;;5.47;;
71202;SDS011;58929;47.490;19.090;2022-09-03T03:27:15;11.07;;;4.80;;
71202;SDS011;58929;47.490;19.090;2022-09-03T03:29:44;6.03;;;4.35;;
71202;SDS011;58929;47.490;19.090;2022-09-03T03:32:12;6.85;;;4.10;;
71202;SDS011;58929;47.490;19.090;2022-09-03T03:34:40;11.40;;;4.70;;
71202;SDS011;58929;47.490;19.090;2022-09-03T03:37:08;9.95;;;4.20;;
71202;SDS011;58929;47.490;19.090;2022-09-03T03:39:35;13.25;;;4.75;;
71202;SDS011;58929;47.490;19.090;2022-09-03T03:42:05;12.90;;;5.32;;
71202;SDS011;58929;47.490;19.090;2022-09-03T03:44:33;9.27;;;4.72;;
71202;SDS011;58929;47.490;19.090;2022-09-03T03:47:01;7.97;;;5.10;;
71202;SDS011;58929;47.490;19.090;2022-09-03T03:49:31;8.02;;;4.30;;
71202;SDS011;58929;47.490;19.090;2022-09-03T03:51:59;12.07;;;4.93;;
71202;SDS011;58929;47.490;19.090;2022-09-03T03:54:28;10.23;;;4.88;;
71202;SDS011;58929;47.490;19.090;2022-09-03T03:56:56;9.95;;;4.40;;
71202;SDS011;58929;47.490;19.090;2022-09-03T03:59:25;12.27;;;4.75;;
71202;SDS011;58929;47.490;19.090;2022-09-03T04:01:53;7.70;;;4.53;;
71202;SDS011;58929;47.490;19.090;2022-09-03T04:04:21;8.63;;;4.97;;
71202;SDS011;58929;47.490;19.090;2022-09-03T04:06:49;9.02;;;4.55;;
71202;SDS011;58929;47.490;19.090;2022-09-03T04:11:44;9.52;;;4.97;;
71202;SDS011;58929;47.490;19.090;2022-09-03T04:14:12;9.38;;;5.45;;
71202;SDS011;58929;47.490;19.090;2022-09-03T04:16:42;10.25;;;5.90;;
71202;SDS011;58929;47.490;19.090;2022-09-03T04:19:12;17.27;;;8.80;;
71202;SDS011;58929;47.490;19.090;2022-09-03T04:21:40;11.32;;;5.28;;
71202;SDS011;58929;47.490;19.090;2022-09-03T04:24:08;13.88;;;6.75;;
71202;SDS011;58929;47.490;19.090;2022-09-03T04:26:36;13.30;;;5.63;;
71202;SDS011;58929;47.490;19.090;2022-09-03T04:29:04;10.82;;;5.70;;
71202;SDS011;58929;47.490;19.090;2022-09-03T04:31:33;11.75;;;5.13;;
71202;SDS011;58929;47.490;19.090;2022-09-03T04:34:03;17.10;;;7.93;;
71202;SDS011;58929;47.490;19.090;2022-09-03T04:36:31;16.83;;;7.72;;
71202;SDS011;58929;47.490;19.090;2022-09-03T04:39:00;13.63;;;8.93;;
71202;SDS011;58929;47.490;19.090;2022-09-03T04:41:28;11.70;;;6.72;;
71202;SDS011;58929;47.490;19.090;2022-09-03T04:43:57;11.15;;;6.22;;
71202;SDS011;58929;47.490;19.090;2022-09-03T04:46:25;9.82;;;5.25;;
71202;SDS011;58929;47.490;19.090;2022-09-03T04:48:59;11.57;;;6.18;;
71202;SDS011;58929;47.490;19.090;2022-09-03T04:51:28;7.97;;;4.95;;
71202;SDS011;58929;47.490;19.090;2022-09-03T04:53:57;18.73;;;6.50;;
71202;SDS011;58929;47.490;19.090;2022-09-03T04:56:26;11.73;;;6.68;;
71202;SDS011;58929;47.490;19.090;2022-09-03T04:58:54;11.93;;;5.82;;
71202;SDS011;58929;47.490;19.090;2022-09-03T05:01:23;11.75;;;5.55;;
71202;SDS011;58929;47.490;19.090;2022-09-03T05:03:52;15.63;;;9.00;;
71202;SDS011;58929;47.490;19.090;2022-09-03T05:06:20;11.73;;;6.95;;
71202;SDS011;58929;47.490;19.090;2022-09-03T05:08:49;11.07;;;5.30;;
71202;SDS011;58929;47.490;19.090;2022-09-03T05:11:17;18.25;;;11.13;;
71202;SDS011;58929;47.490;19.090;2022-09-03T05:13:46;20.52;;;7.28;;
71202;SDS011;58929;47.490;19.090;2022-09-03T05:16:15;9.68;;;5.32;;
71202;SDS011;58929;47.490;19.090;2022-09-03T05:18:43;12.10;;;5.80;;
71202;SDS011;58929;47.490;19.090;2022-09-03T05:21:13;10.88;;;5.85;;
71202;SDS011;58929;47.490;19.090;2022-09-03T05:23:41;7.32;;;4.75;;
71202;SDS011;58929;47.490;19.090;2022-09-03T05:26:11;10.68;;;5.47;;
71202;SDS011;58929;47.490;19.090;2022-09-03T05:28:40;14.48;;;5.63;;
71202;SDS011;58929;47.490;19.090;2022-09-03T05:31:09;12.10;;;5.50;;
71202;SDS011;58929;47.490;19.090;2022-09-03T05:33:38;14.50;;;5.68;;
71202;SDS011;58929;47.490;19.090;2022-09-03T05:36:08;8.13;;;5.18;;
71202;SDS011;58929;47.490;19.090;2022-09-03T05:38:36;13.30;;;5.28;;
71202;SDS011;58929;47.490;19.090;2022-09-03T05:41:05;8.60;;;4.93;;
71202;SDS011;58929;47.490;19.090;2022-09-03T05:43:35;13.55;;;5.72;;
71202;SDS011;58929;47.490;19.090;2022-09-03T05:46:04;11.63;;;5.38;;
71202;SDS011;58929;47.490;19.090;2022-09-03T05:48:33;13.20;;;5.07;;
71202;SDS011;58929;47.490;19.090;2022-09-03T05:51:02;9.98;;;5.40;;
71202;SDS011;58929;47.490;19.090;2022-09-03T05:53:32;7.30;;;4.65;;
71202;SDS011;58929;47.490;19.090;2022-09-03T05:56:00;11.05;;;5.50;;
71202;SDS011;58929;47.490;19.090;2022-09-03T05:58:29;9.57;;;5.60;;
71202;SDS011;58929;47.490;19.090;2022-09-03T06:00:58;13.65;;;6.40;;
71202;SDS011;58929;47.490;19.090;2022-09-03T06:03:26;13.35;;;6.07;;
71202;SDS011;58929;47.490;19.090;2022-09-03T06:05:54;11.27;;;6.00;;
71202;SDS011;58929;47.490;19.090;2022-09-03T06:08:22;15.25;;;5.97;;
71202;SDS011;58929;47.490;19.090;2022-09-03T06:10:56;23.52;;;7.60;;
71202;SDS011;58929;47.490;19.090;2022-09-03T06:13:24;9.07;;;6.45;;
71202;SDS011;58929;47.490;19.090;2022-09-03T06:15:55;10.27;;;6.32;;
71202;SDS011;58929;47.490;19.090;2022-09-03T06:18:25;8.43;;;5.82;;
71202;SDS011;58929;47.490;19.090;2022-09-03T06:20:56;14.18;;;6.47;;
71202;SDS011;58929;47.490;19.090;2022-09-03T06:23:24;15.90;;;6.45;;
71202;SDS011;58929;47.490;19.090;2022-09-03T06:25:59;13.15;;;6.50;;
71202;SDS011;58929;47.490;19.090;2022-09-03T06:28:31;13.75;;;5.75;;
71202;SDS011;58929;47.490;19.090;2022-09-03T06:31:00;11.00;;;6.43;;
71202;SDS011;58929;47.490;19.090;2022-09-03T06:33:30;10.35;;;7.28;;
71202;SDS011;58929;47.490;19.090;2022-09-03T06:35:59;13.70;;;7.00;;
71202;SDS011;58929;47.490;19.090;2022-09-03T06:38:33;9.18;;;7.13;;
71202;SDS011;58929;47.490;19.090;2022-09-03T06:41:02;13.40;;;8.48;;
71202;SDS011;58929;47.490;19.090;2022-09-03T06:43:32;12.35;;;8.48;;
71202;SDS011;58929;47.490;19.090;2022-09-03T06:46:00;13.95;;;8.20;;
71202;SDS011;58929;47.490;19.090;2022-09-03T06:48:31;10.95;;;6.25;;
71202;SDS011;58929;47.490;19.090;2022-09-03T06:50:59;11.57;;;7.40;;
71202;SDS011;58929;47.490;19.090;2022-09-03T06:53:28;14.27;;;7.28;;
71202;SDS011;58929;47.490;19.090;2022-09-03T06:55:58;12.38;;;6.95;;
71202;SDS011;58929;47.490;19.090;2022-09-03T06:58:27;10.25;;;6.38;;
71202;SDS011;58929;47.490;19.090;2022-09-03T07:00:59;11.48;;;5.03;;
71202;SDS011;58929;47.490;19.090;2022-09-03T07:03:30;9.82;;;5.40;;
71202;SDS011;58929;47.490;19.090;2022-09-03T07:06:01;11.60;;;5.43;;
71202;SDS011;58929;47.490;19.090;2022-09-03T07:08:30;9.43;;;4.32;;
71202;SDS011;58929;47.490;19.090;2022-09-03T07:10:58;12.05;;;4.10;;
71202;SDS011;58929;47.490;19.090;2022-09-03T07:13:26;9.77;;;4.60;;
71202;SDS011;58929;47.490;19.090;2022-09-03T07:15:58;6.43;;;3.97;;
71202;SDS011;58929;47.490;19.090;2022-09-03T07:18:26;9.65;;;4.43;;
71202;SDS011;58929;47.490;19.090;2022-09-03T07:20:58;5.72;;;3.63;;
71202;SDS011;58929;47.490;19.090;2022-09-03T07:23:27;6.05;;;3.95;;
71202;SDS011;58929;47.490;19.090;2022-09-03T07:25:55;7.38;;;3.58;;
71202;SDS011;58929;47.490;19.090;2022-09-03T07:28:23;8.43;;;3.53;;
71202;SDS011;58929;47.490;19.090;2022-09-03T07:30:52;6.32;;;3.70;;
71202;SDS011;58929;47.490;19.090;2022-09-03T07:33:19;4.28;;;3.20;;
71202;SDS011;58929;47.490;19.090;2022-09-03T07:35:47;6.65;;;3.92;;
71202;SDS011;58929;47.490;19.090;2022-09-03T07:38:17;7.43;;;3.20;;
71202;SDS011;58929;47.490;19.090;2022-09-03T07:40:45;7.15;;;3.55;;
71202;SDS011;58929;47.490;19.090;2022-09-03T07:43:13;7.82;;;3.30;;
71202;SDS011;58929;47.490;19.090;2022-09-03T07:45:42;11.95;;;3.50;;
71202;SDS011;58929;47.490;19.090;2022-09-03T07:48:11;11.27;;;3.72;;
71202;SDS011;58929;47.490;19.090;2022-09-03T07:50:39;6.60;;;3.55;;
71202;SDS011;58929;47.490;19.090;2022-09-03T07:53:06;4.95;;;3.20;;
71202;SDS011;58929;47.490;19.090;2022-09-03T07:55:36;7.45;;;3.47;;
71202;SDS011;58929;47.490;19.090;2022-09-03T07:58:04;4.82;;;3.42;;
